Time;durP1;ratioP1;P1;durP2;ratioP2;P2;SDS_P1;SDS_P2;PMS_P1;PMS_P2;Temp;Humidity;BMP_temperature;BMP_pressure;BME280_temperature;BME280_humidity;BME280_pressure;Samples;Min_cycle;Max_cycle;Signal;HPM_P1;HPM_P2
2021/01/11 00:01:30;;;;;;;6.15;4.60;;;4.90;99.90;;;;;;4978352;28;20039;-93
2021/01/11 00:03:56;;;;;;;6.57;4.00;;;4.90;99.90;;;;;;4959170;28;20046;-94
2021/01/11 00:06:27;;;;;;;8.73;5.03;;;4.90;99.90;;;;;;4961900;28;20030;-93
2021/01/11 00:08:53;;;;;;;4.28;3.42;;;4.90;99.90;;;;;;4962836;28;20026;-93
2021/01/11 00:11:22;;;;;;;6.60;4.43;;;5.00;99.90;;;;;;4993256;28;20038;-93
2021/01/11 00:13:49;;;;;;;5.30;3.47;;;5.00;99.90;;;;;;4977202;28;20046;-91
2021/01/11 00:16:15;;;;;;;5.88;4.25;;;5.00;99.90;;;;;;4971776;28;20058;-92
2021/01/11 00:18:41;;;;;;;7.90;4.00;;;5.00;99.90;;;;;;4979169;28;20079;-93
2021/01/11 00:21:07;;;;;;;8.20;5.20;;;5.00;99.90;;;;;;4977995;28;20037;-92
2021/01/11 00:23:33;;;;;;;8.85;4.40;;;5.00;99.90;;;;;;4957421;28;20119;-92
2021/01/11 00:25:59;;;;;;;7.25;4.00;;;5.00;99.90;;;;;;4956673;28;20037;-94
2021/01/11 00:28:26;;;;;;;7.28;3.40;;;5.00;99.90;;;;;;4958689;28;20033;-93
2021/01/11 00:30:53;;;;;;;8.68;3.38;;;5.10;99.90;;;;;;4955737;28;20035;-93
2021/01/11 00:33:19;;;;;;;3.58;2.83;;;5.10;99.90;;;;;;4957854;28;20058;-92
2021/01/11 00:35:44;;;;;;;4.28;3.33;;;5.10;99.90;;;;;;4960013;28;20046;-92
2021/01/11 00:38:10;;;;;;;4.20;3.22;;;5.10;99.90;;;;;;4959518;28;20200;-94
2021/01/11 00:40:36;;;;;;;9.88;3.60;;;5.10;99.90;;;;;;4957710;28;20461;-92
2021/01/11 00:43:03;;;;;;;6.72;3.88;;;5.10;99.90;;;;;;4959095;28;20032;-94
2021/01/11 00:45:28;;;;;;;7.82;4.30;;;5.10;99.90;;;;;;4968846;28;20047;-93
2021/01/11 00:47:54;;;;;;;4.10;3.15;;;5.10;99.90;;;;;;4959041;28;20054;-95
2021/01/11 00:50:21;;;;;;;5.15;3.85;;;5.10;99.90;;;;;;4957926;28;20099;-93
2021/01/11 00:52:47;;;;;;;6.47;3.72;;;5.10;99.90;;;;;;4958470;28;20038;-93
2021/01/11 00:55:14;;;;;;;8.10;3.38;;;5.10;99.90;;;;;;4966320;28;20045;-93
2021/01/11 00:57:42;;;;;;;5.10;2.92;;;5.20;99.90;;;;;;4962062;28;20030;-93
2021/01/11 01:00:10;;;;;;;3.65;2.20;;;5.20;99.90;;;;;;4959911;28;20038;-92
2021/01/11 01:02:36;;;;;;;5.80;3.40;;;5.10;99.90;;;;;;4960079;28;20042;-92
2021/01/11 01:05:01;;;;;;;4.35;3.03;;;5.20;99.90;;;;;;4958873;28;20120;-93
2021/01/11 01:07:27;;;;;;;6.05;2.83;;;5.20;99.90;;;;;;4958770;28;20394;-93
2021/01/11 01:09:53;;;;;;;5.13;3.10;;;5.20;99.90;;;;;;4956161;28;20038;-94
2021/01/11 01:12:19;;;;;;;3.20;2.20;;;5.20;99.90;;;;;;4957686;28;20070;-92
2021/01/11 01:14:45;;;;;;;2.30;1.50;;;5.20;99.90;;;;;;4957257;28;20031;-94
2021/01/11 01:17:13;;;;;;;4.22;2.22;;;5.20;99.90;;;;;;4957076;28;20041;-93
2021/01/11 01:19:44;;;;;;;6.07;2.60;;;5.20;99.90;;;;;;4957356;28;20210;-93
2021/01/11 01:22:10;;;;;;;4.15;2.50;;;5.20;99.90;;;;;;4959265;28;20059;-93
2021/01/11 01:24:36;;;;;;;2.97;2.55;;;5.20;99.90;;;;;;4954906;28;20023;-93
2021/01/11 01:27:01;;;;;;;5.00;2.40;;;5.20;99.90;;;;;;4957029;28;20496;-92
2021/01/11 01:29:27;;;;;;;3.25;2.28;;;5.20;99.90;;;;;;4958127;28;20476;-93
2021/01/11 01:31:52;;;;;;;3.90;2.88;;;5.20;99.90;;;;;;4956563;28;20354;-92
2021/01/11 01:34:18;;;;;;;4.05;2.83;;;5.20;99.90;;;;;;4956355;28;20431;-92
2021/01/11 01:36:44;;;;;;;3.67;2.10;;;5.10;99.90;;;;;;4957130;28;20031;-92
2021/01/11 01:39:09;;;;;;;7.22;2.63;;;5.10;99.90;;;;;;4956387;28;20038;-93
2021/01/11 01:41:35;;;;;;;6.03;2.58;;;5.10;99.90;;;;;;4956876;28;20062;-93
2021/01/11 01:44:01;;;;;;;3.35;2.47;;;5.10;99.90;;;;;;4957362;28;20029;-93
2021/01/11 01:46:29;;;;;;;2.03;1.65;;;5.10;99.90;;;;;;4955669;28;20026;-92
2021/01/11 01:48:55;;;;;;;2.15;1.98;;;5.10;99.90;;;;;;4955617;28;20019;-93
2021/01/11 01:51:21;;;;;;;4.32;2.53;;;5.10;99.90;;;;;;4956460;28;20038;-93
2021/01/11 01:53:47;;;;;;;3.55;1.90;;;5.10;99.90;;;;;;4972278;28;20043;-94
2021/01/11 01:56:15;;;;;;;4.03;2.20;;;5.10;99.90;;;;;;4956019;28;20037;-93
2021/01/11 01:58:41;;;;;;;4.22;2.22;;;5.10;99.90;;;;;;4957196;28;20484;-92
2021/01/11 02:01:07;;;;;;;3.03;2.05;;;5.10;99.90;;;;;;4955661;28;20511;-93
2021/01/11 02:03:33;;;;;;;2.65;2.03;;;5.10;99.90;;;;;;4956611;28;20015;-94
2021/01/11 02:05:59;;;;;;;3.83;2.20;;;5.10;99.90;;;;;;4954201;28;20397;-93
2021/01/11 02:08:31;;;;;;;3.60;1.75;;;5.10;99.90;;;;;;4955461;28;20370;-94
2021/01/11 02:11:23;;;;;;;4.18;2.20;;;5.10;99.90;;;;;;4952976;28;20034;-91
2021/01/11 02:14:02;;;;;;;2.03;1.33;;;5.00;99.90;;;;;;4957109;28;20068;-94
2021/01/11 02:16:46;;;;;;;5.40;2.22;;;5.00;99.90;;;;;;4956380;28;20077;-93
2021/01/11 02:19:18;;;;;;;3.20;2.22;;;5.10;99.90;;;;;;4955575;28;20065;-93
2021/01/11 02:21:52;;;;;;;3.10;2.25;;;5.00;99.90;;;;;;4954139;28;20058;-94
2021/01/11 02:24:55;;;;;;;3.72;2.30;;;5.00;99.90;;;;;;4956038;28;20388;-94
2021/01/11 02:27:35;;;;;;;2.40;1.77;;;5.00;99.90;;;;;;4955045;28;20118;-94
2021/01/11 02:30:25;;;;;;;2.78;1.90;;;5.00;99.90;;;;;;4954244;28;20030;-94
2021/01/11 02:33:14;;;;;;;2.17;1.75;;;5.00;99.90;;;;;;4954472;28;20106;-94
2021/01/11 02:35:48;;;;;;;2.88;1.67;;;5.00;99.90;;;;;;4954583;28;20027;-94
2021/01/11 02:38:22;;;;;;;4.25;1.70;;;5.00;99.90;;;;;;4957349;28;20066;-93
2021/01/11 02:40:49;;;;;;;5.65;1.83;;;5.00;99.90;;;;;;4953551;28;20039;-93
2021/01/11 02:43:15;;;;;;;3.08;1.70;;;5.00;99.90;;;;;;4955706;28;20022;-93
2021/01/11 02:45:41;;;;;;;3.28;1.80;;;5.00;99.90;;;;;;4954610;28;20046;-93
2021/01/11 02:48:28;;;;;;;7.63;2.03;;;5.00;99.90;;;;;;4954937;28;20073;-92
2021/01/11 02:51:15;;;;;;;4.50;1.77;;;5.00;99.90;;;;;;4954275;28;20019;-93
2021/01/11 02:54:00;;;;;;;3.20;1.67;;;5.00;99.90;;;;;;4964318;28;20074;-92
2021/01/11 02:56:44;;;;;;;2.50;1.80;;;5.10;99.90;;;;;;4954573;28;20106;-92
2021/01/11 02:59:19;;;;;;;3.92;1.55;;;5.10;99.90;;;;;;4955155;28;20373;-92
2021/01/11 03:01:56;;;;;;;3.28;1.45;;;5.00;99.90;;;;;;4955805;28;20031;-93
2021/01/11 03:04:26;;;;;;;3.55;1.30;;;5.10;99.90;;;;;;4952867;28;20488;-93
2021/01/11 03:07:00;;;;;;;2.53;1.90;;;5.10;99.90;;;;;;4952955;28;20030;-92
2021/01/11 03:09:27;;;;;;;2.55;1.80;;;5.10;99.90;;;;;;4953668;28;20065;-92
2021/01/11 03:11:54;;;;;;;3.33;1.40;;;5.00;99.90;;;;;;4955223;28;20019;-92
2021/01/11 03:14:19;;;;;;;3.00;1.80;;;5.10;99.90;;;;;;4954148;28;20137;-92
2021/01/11 03:16:45;;;;;;;1.98;1.48;;;5.10;99.90;;;;;;4953701;28;20027;-93
2021/01/11 03:19:11;;;;;;;2.45;1.27;;;5.10;99.90;;;;;;4953596;28;20031;-92
2021/01/11 03:21:37;;;;;;;2.30;1.25;;;5.10;99.90;;;;;;4951905;28;20133;-92
2021/01/11 03:24:03;;;;;;;3.08;1.77;;;5.00;99.90;;;;;;4954039;28;20033;-91
2021/01/11 03:26:29;;;;;;;2.95;1.35;;;5.00;99.90;;;;;;4964855;28;20043;-92
2021/01/11 03:28:55;;;;;;;5.00;1.95;;;5.10;99.90;;;;;;4956505;28;20018;-92
2021/01/11 03:31:22;;;;;;;2.13;1.70;;;5.10;99.90;;;;;;4956421;28;20476;-93
2021/01/11 03:33:48;;;;;;;2.97;1.83;;;5.10;99.90;;;;;;4957883;28;20023;-92
2021/01/11 03:36:13;;;;;;;7.40;2.03;;;5.10;99.90;;;;;;4955810;28;20027;-93
2021/01/11 03:38:40;;;;;;;2.90;1.77;;;5.10;99.90;;;;;;4957608;28;20027;-93
2021/01/11 03:41:09;;;;;;;2.35;1.75;;;5.10;99.90;;;;;;4955529;28;20427;-92
2021/01/11 03:43:41;;;;;;;5.25;2.60;;;5.10;99.90;;;;;;4955881;28;20035;-92
2021/01/11 03:46:08;;;;;;;2.47;1.52;;;5.10;99.90;;;;;;4954979;28;20031;-93
2021/01/11 03:48:34;;;;;;;4.80;1.90;;;5.10;99.90;;;;;;4955760;28;20041;-94
2021/01/11 03:51:01;;;;;;;2.40;1.70;;;5.10;99.90;;;;;;4957328;28;20106;-92
2021/01/11 03:53:27;;;;;;;5.47;2.00;;;5.20;99.90;;;;;;4957924;28;20031;-93
2021/01/11 03:55:53;;;;;;;3.88;1.92;;;5.10;99.90;;;;;;4957305;28;20599;-93
2021/01/11 03:58:20;;;;;;;2.03;1.63;;;5.10;99.90;;;;;;4958293;28;20019;-93
2021/01/11 04:00:50;;;;;;;2.15;1.58;;;5.10;99.90;;;;;;4958873;28;20034;-93
2021/01/11 04:03:17;;;;;;;2.65;1.88;;;5.10;99.90;;;;;;4959709;28;20110;-92
2021/01/11 04:05:47;;;;;;;2.42;1.63;;;5.10;99.90;;;;;;4953296;28;20131;-92
2021/01/11 04:08:14;;;;;;;2.50;1.77;;;5.10;99.90;;;;;;4957414;28;20062;-94
2021/01/11 04:10:40;;;;;;;3.85;1.70;;;5.00;99.90;;;;;;4962813;28;20117;-93
2021/01/11 04:13:05;;;;;;;5.40;2.00;;;5.10;99.90;;;;;;4963080;28;20030;-93
2021/01/11 04:15:32;;;;;;;4.55;2.15;;;5.00;99.90;;;;;;4971067;28;20027;-93
2021/01/11 04:17:58;;;;;;;3.03;1.17;;;5.00;99.90;;;;;;4980932;28;20078;-93
2021/01/11 04:20:24;;;;;;;2.42;1.30;;;5.10;99.90;;;;;;4981825;28;20433;-93
2021/01/11 04:22:51;;;;;;;3.05;1.52;;;5.10;99.90;;;;;;4959668;28;20078;-95
2021/01/11 04:25:17;;;;;;;2.33;1.48;;;5.00;99.90;;;;;;4975083;28;20388;-93
2021/01/11 04:27:43;;;;;;;4.78;1.77;;;5.10;99.90;;;;;;4956912;28;20033;-93
2021/01/11 04:30:10;;;;;;;4.78;1.73;;;5.10;99.90;;;;;;4956457;28;20029;-92
2021/01/11 04:32:36;;;;;;;2.50;1.60;;;5.10;99.90;;;;;;4953830;28;20023;-92
2021/01/11 04:35:03;;;;;;;1.83;1.50;;;5.00;99.90;;;;;;4955904;28;20038;-92
2021/01/11 04:37:29;;;;;;;2.25;1.50;;;5.10;99.90;;;;;;4952268;28;20089;-92
2021/01/11 04:39:54;;;;;;;4.68;1.77;;;5.10;99.90;;;;;;4957315;28;20030;-92
2021/01/11 04:42:28;;;;;;;2.13;1.20;;;5.10;99.90;;;;;;4955957;28;20086;-93
2021/01/11 04:44:55;;;;;;;6.15;1.40;;;5.20;99.90;;;;;;4956883;28;20033;-94
2021/01/11 04:47:22;;;;;;;1.73;1.30;;;5.10;99.90;;;;;;4955797;28;20034;-94
2021/01/11 04:49:53;;;;;;;2.33;1.50;;;5.10;99.90;;;;;;4955710;28;20105;-93
2021/01/11 04:52:19;;;;;;;;;;;5.10;99.90;;;;;;4956812;28;20030;-93
2021/01/11 04:54:51;;;;;;;3.03;1.45;;;5.20;99.90;;;;;;4972866;28;19910;-92
2021/01/11 04:57:22;;;;;;;1.05;0.95;;;5.10;99.90;;;;;;4958592;28;20034;-93
2021/01/11 04:59:49;;;;;;;3.03;1.30;;;5.20;99.90;;;;;;4956456;28;20027;-93
2021/01/11 05:02:22;;;;;;;2.88;0.98;;;5.20;99.90;;;;;;4956789;28;20069;-93
2021/01/11 05:04:52;;;;;;;1.70;1.30;;;5.20;99.90;;;;;;4959246;28;20014;-94
2021/01/11 05:07:22;;;;;;;2.42;1.23;;;5.20;99.90;;;;;;4954994;28;20023;-92
2021/01/11 05:09:48;;;;;;;3.83;1.40;;;5.10;99.90;;;;;;4955632;28;20023;-92
2021/01/11 05:12:14;;;;;;;4.45;1.67;;;5.20;99.90;;;;;;4955553;28;20023;-93
2021/01/11 05:14:43;;;;;;;6.05;1.30;;;5.20;99.90;;;;;;4957075;28;20027;-92
2021/01/11 05:17:12;;;;;;;1.50;1.30;;;5.20;99.90;;;;;;4940060;28;20117;-92
2021/01/11 05:19:38;;;;;;;5.03;1.40;;;5.20;99.90;;;;;;4955918;28;20027;-92
2021/01/11 05:22:09;;;;;;;1.13;1.00;;;5.20;99.90;;;;;;4956187;28;20050;-91
2021/01/11 05:24:35;;;;;;;3.13;0.98;;;5.20;99.90;;;;;;4953007;28;20027;-92
2021/01/11 05:27:09;;;;;;;4.13;1.63;;;5.20;99.90;;;;;;4955729;28;20115;-92
2021/01/11 05:29:37;;;;;;;3.25;1.23;;;5.20;99.90;;;;;;4954576;28;20137;-93
2021/01/11 05:32:05;;;;;;;2.97;1.10;;;5.20;99.90;;;;;;4956495;28;20108;-92
2021/01/11 05:34:51;;;;;;;4.78;1.42;;;5.20;99.90;;;;;;4959075;28;20031;-93
2021/01/11 05:37:37;;;;;;;1.98;1.23;;;5.20;99.90;;;;;;4964303;28;20019;-93
2021/01/11 05:40:08;;;;;;;4.20;1.20;;;5.20;99.90;;;;;;4958417;28;20037;-94
2021/01/11 05:42:34;;;;;;;1.23;1.00;;;5.20;99.90;;;;;;4956110;28;20701;-94
2021/01/11 05:45:12;;;;;;;4.20;1.23;;;5.20;99.90;;;;;;4957708;28;20101;-94
2021/01/11 05:48:09;;;;;;;3.40;1.70;;;5.20;99.90;;;;;;4958907;28;20058;-92
2021/01/11 05:50:41;;;;;;;2.05;0.93;;;5.20;99.90;;;;;;4958398;28;20023;-92
2021/01/11 05:53:29;;;;;;;1.95;1.33;;;5.20;99.90;;;;;;4958172;28;20516;-92
2021/01/11 05:55:56;;;;;;;1.05;0.93;;;5.20;99.90;;;;;;4963229;28;20023;-92
2021/01/11 05:58:25;;;;;;;2.33;1.40;;;5.10;99.90;;;;;;4959158;28;20042;-94
2021/01/11 06:00:51;;;;;;;7.32;1.73;;;5.10;99.90;;;;;;4957557;28;20046;-94
2021/01/11 06:03:17;;;;;;;2.47;1.25;;;5.10;99.90;;;;;;4958177;28;20023;-94
2021/01/11 06:05:43;;;;;;;0.82;0.75;;;5.10;99.90;;;;;;4961836;28;20566;-93
2021/01/11 06:08:14;;;;;;;2.90;1.67;;;5.10;99.90;;;;;;4959571;28;20027;-93
2021/01/11 06:10:40;;;;;;;2.05;1.35;;;5.00;99.90;;;;;;4963530;28;20070;-92
2021/01/11 06:13:10;;;;;;;1.77;0.90;;;5.00;99.90;;;;;;4975112;28;20159;-94
2021/01/11 06:15:38;;;;;;;3.65;1.52;;;5.00;99.90;;;;;;4956927;28;20027;-93
2021/01/11 06:18:12;;;;;;;5.53;1.42;;;5.00;99.90;;;;;;4958964;28;20031;-93
2021/01/11 06:20:45;;;;;;;4.93;1.02;;;4.90;99.90;;;;;;4957344;28;20050;-91
2021/01/11 06:23:32;;;;;;;4.22;1.20;;;4.90;99.90;;;;;;4956075;28;20090;-92
2021/01/11 06:25:58;;;;;;;5.30;1.58;;;4.90;99.90;;;;;;4956813;28;20027;-92
2021/01/11 06:28:32;;;;;;;3.90;1.40;;;4.90;99.90;;;;;;4958167;28;20707;-94
2021/01/11 06:31:14;;;;;;;2.55;1.90;;;4.90;99.90;;;;;;4957681;28;20059;-94
2021/01/11 06:33:40;;;;;;;6.97;2.33;;;4.80;99.90;;;;;;4956343;28;20034;-93
2021/01/11 06:36:47;;;;;;;6.20;3.10;;;4.80;99.90;;;;;;4956939;28;20042;-92
2021/01/11 06:39:13;;;;;;;6.75;2.78;;;4.80;99.90;;;;;;4888026;29;20035;-90
2021/01/11 06:41:39;;;;;;;4.20;2.45;;;4.80;99.90;;;;;;4888819;29;20041;-94
2021/01/11 06:44:09;;;;;;;11.00;2.70;;;4.80;99.90;;;;;;4888320;29;20033;-94
2021/01/11 06:46:39;;;;;;;9.63;2.37;;;4.80;99.90;;;;;;4888836;29;20024;-94
2021/01/11 06:49:08;;;;;;;4.88;2.45;;;4.80;99.90;;;;;;4903969;29;20573;-93
2021/01/11 06:51:43;;;;;;;6.78;3.00;;;4.70;99.90;;;;;;4887674;29;20028;-93
2021/01/11 06:54:11;;;;;;;5.75;2.92;;;4.70;99.90;;;;;;4886523;29;20068;-92
2021/01/11 06:56:38;;;;;;;9.77;4.03;;;4.70;99.90;;;;;;4886782;29;20043;-90
2021/01/11 06:59:07;;;;;;;5.78;2.88;;;4.70;99.90;;;;;;4884706;29;20033;-92
2021/01/11 07:01:38;;;;;;;5.97;3.25;;;4.70;99.90;;;;;;4907024;29;20069;-94
2021/01/11 07:04:05;;;;;;;5.85;3.00;;;4.70;99.90;;;;;;4897840;29;20044;-93
2021/01/11 07:06:38;;;;;;;5.53;2.47;;;4.70;99.90;;;;;;4911601;29;20545;-93
2021/01/11 07:09:08;;;;;;;5.78;2.78;;;4.70;99.90;;;;;;4902451;28;20542;-93
2021/01/11 07:11:41;;;;;;;5.25;2.40;;;4.70;99.90;;;;;;4956098;28;20030;-93
2021/01/11 07:14:09;;;;;;;8.32;2.95;;;4.70;99.90;;;;;;4960317;28;20069;-94
2021/01/11 07:16:53;;;;;;;5.70;2.45;;;4.60;99.90;;;;;;4961658;28;20015;-93
2021/01/11 07:19:37;;;;;;;4.60;2.42;;;4.70;99.90;;;;;;4958493;28;20057;-94
2021/01/11 07:22:09;;;;;;;10.15;2.90;;;4.60;99.90;;;;;;4964612;28;20047;-94
2021/01/11 07:24:37;;;;;;;4.45;2.70;;;4.70;99.90;;;;;;4966885;28;20023;-94
2021/01/11 07:27:03;;;;;;;3.42;2.50;;;4.60;99.90;;;;;;4967771;28;20372;-93
2021/01/11 07:29:39;;;;;;;5.03;2.78;;;4.60;99.90;;;;;;4966679;28;20027;-93
2021/01/11 07:32:05;;;;;;;8.98;2.63;;;4.60;99.90;;;;;;4973926;28;20401;-93
2021/01/11 07:34:33;;;;;;;4.40;2.45;;;4.60;99.90;;;;;;4978029;28;20035;-94
2021/01/11 07:36:59;;;;;;;5.50;2.95;;;4.70;99.90;;;;;;4973491;28;20034;-95
2021/01/11 07:39:27;;;;;;;5.40;2.72;;;4.60;99.90;;;;;;4969395;28;20035;-92
2021/01/11 07:42:18;;;;;;;8.52;2.92;;;4.60;99.90;;;;;;4962248;28;20043;-91
2021/01/11 07:44:47;;;;;;;6.28;2.70;;;4.70;99.90;;;;;;4961238;28;20049;-92
2021/01/11 07:47:14;;;;;;;8.45;2.42;;;4.70;99.90;;;;;;4963804;28;20026;-92
2021/01/11 07:49:43;;;;;;;5.47;3.33;;;4.70;99.90;;;;;;4969889;28;20026;-93
2021/01/11 07:52:18;;;;;;;8.30;5.25;;;4.70;99.90;;;;;;4971217;28;20049;-92
2021/01/11 07:54:47;;;;;;;5.03;3.58;;;4.70;99.90;;;;;;4984485;28;20098;-93
2021/01/11 07:57:15;;;;;;;12.02;3.65;;;4.80;99.90;;;;;;4966089;28;20058;-95
2021/01/11 07:59:42;;;;;;;5.15;2.92;;;4.70;99.90;;;;;;4967889;28;20435;-93
2021/01/11 08:02:13;;;;;;;8.23;3.97;;;4.70;99.90;;;;;;4967112;28;20035;-93
2021/01/11 08:04:40;;;;;;;6.35;3.17;;;4.80;99.90;;;;;;4967889;28;20049;-93
2021/01/11 08:07:08;;;;;;;3.88;2.90;;;4.70;99.90;;;;;;4971142;28;20033;-93
2021/01/11 08:09:34;;;;;;;6.38;3.20;;;4.80;99.90;;;;;;4982882;28;20030;-94
2021/01/11 08:12:17;;;;;;;8.63;3.60;;;4.80;99.90;;;;;;4964792;28;20027;-93
2021/01/11 08:14:47;;;;;;;5.13;2.55;;;4.80;99.90;;;;;;4971713;28;20141;-95
2021/01/11 08:17:18;;;;;;;2.80;2.17;;;4.80;99.90;;;;;;4986667;28;20039;-94
2021/01/11 08:19:51;;;;;;;3.53;1.95;;;4.80;99.90;;;;;;4966690;28;20031;-93
2021/01/11 08:22:19;;;;;;;3.47;2.05;;;4.80;99.90;;;;;;4967867;28;20043;-94
2021/01/11 08:24:48;;;;;;;5.32;2.80;;;4.80;99.90;;;;;;4969013;28;20019;-94
2021/01/11 08:27:40;;;;;;;4.47;2.30;;;4.80;99.90;;;;;;4973209;28;20030;-94
2021/01/11 08:30:13;;;;;;;8.02;2.72;;;4.80;99.90;;;;;;4964057;28;20027;-94
2021/01/11 08:32:39;;;;;;;5.07;3.05;;;4.80;99.90;;;;;;4968227;28;20038;-94
2021/01/11 08:35:13;;;;;;;8.20;3.28;;;4.80;99.90;;;;;;4970153;28;20035;-94
2021/01/11 08:37:39;;;;;;;7.07;3.22;;;4.90;99.90;;;;;;4959106;28;20027;-93
2021/01/11 08:40:17;;;;;;;8.00;3.55;;;4.80;99.90;;;;;;4974099;28;20126;-94
2021/01/11 08:42:43;;;;;;;6.43;3.17;;;4.80;99.90;;;;;;4977191;28;20035;-93
2021/01/11 08:45:29;;;;;;;5.75;3.53;;;4.80;99.90;;;;;;4978223;28;20018;-93
2021/01/11 08:48:12;;;;;;;6.70;3.22;;;4.80;99.90;;;;;;4985533;28;20058;-91
2021/01/11 08:50:57;;;;;;;6.55;2.78;;;4.80;99.90;;;;;;4977547;28;20046;-93
2021/01/11 08:53:27;;;;;;;7.47;2.97;;;4.80;99.90;;;;;;4967200;28;20066;-95
2021/01/11 08:56:01;;;;;;;7.75;2.90;;;4.80;99.90;;;;;;4975831;28;20015;-94
2021/01/11 08:58:29;;;;;;;8.73;3.33;;;4.80;99.90;;;;;;4967495;28;20019;-94
2021/01/11 09:01:07;;;;;;;5.88;3.10;;;4.80;99.90;;;;;;4970572;28;20030;-94
2021/01/11 09:03:59;;;;;;;7.78;3.25;;;4.80;99.90;;;;;;4979563;28;20959;-94
2021/01/11 09:06:36;;;;;;;4.80;2.15;;;4.80;99.90;;;;;;4966411;28;20031;-93
2021/01/11 09:09:11;;;;;;;7.50;2.60;;;4.80;99.90;;;;;;4967572;28;20033;-93
2021/01/11 09:11:41;;;;;;;4.60;2.58;;;4.80;99.90;;;;;;4942209;28;20026;-93
2021/01/11 09:14:10;;;;;;;5.82;2.55;;;4.80;99.90;;;;;;4960569;28;20099;-93
2021/01/11 09:16:38;;;;;;;5.28;2.60;;;4.80;99.90;;;;;;4966149;28;20062;-92
2021/01/11 09:19:13;;;;;;;5.20;2.28;;;4.80;99.90;;;;;;4968046;28;20030;-94
2021/01/11 09:21:40;;;;;;;3.28;1.98;;;4.80;99.90;;;;;;4966380;28;20051;-95
2021/01/11 09:24:09;;;;;;;3.92;2.10;;;4.90;99.90;;;;;;4966874;28;20023;-94
2021/01/11 09:26:38;;;;;;;4.47;2.15;;;4.90;99.90;;;;;;4968882;28;20007;-92
2021/01/11 09:29:05;;;;;;;2.92;1.95;;;4.90;99.90;;;;;;4985071;28;20029;-93
2021/01/11 09:31:35;;;;;;;4.82;2.10;;;4.90;99.90;;;;;;4968433;28;20035;-92
2021/01/11 09:34:00;;;;;;;3.38;2.30;;;4.90;99.90;;;;;;4967148;28;20030;-91
2021/01/11 09:36:34;;;;;;;4.38;1.77;;;4.90;99.90;;;;;;4970774;28;20031;-92
2021/01/11 09:39:00;;;;;;;2.47;2.00;;;4.90;99.90;;;;;;4967065;28;20027;-94
2021/01/11 09:41:26;;;;;;;7.40;1.95;;;4.90;99.90;;;;;;4966798;28;20540;-93
2021/01/11 09:43:51;;;;;;;6.32;2.00;;;4.90;99.90;;;;;;4965325;28;20101;-92
2021/01/11 09:46:17;;;;;;;2.13;1.65;;;4.90;99.90;;;;;;4967728;28;20019;-94
2021/01/11 09:48:43;;;;;;;4.68;2.20;;;5.00;99.90;;;;;;4967864;28;20098;-95
2021/01/11 09:51:08;;;;;;;3.97;1.90;;;5.00;99.90;;;;;;4967848;28;20294;-92
2021/01/11 09:53:34;;;;;;;5.20;2.20;;;5.00;99.90;;;;;;4967786;28;20035;-94
2021/01/11 09:55:59;;;;;;;5.38;2.03;;;5.00;99.90;;;;;;4963799;28;20027;-93
2021/01/11 09:58:25;;;;;;;3.05;2.03;;;5.00;99.90;;;;;;4966351;28;20035;-92
2021/01/11 10:00:51;;;;;;;2.40;1.55;;;5.00;99.90;;;;;;4959419;28;20030;-92
2021/01/11 10:03:16;;;;;;;4.47;1.95;;;5.00;99.90;;;;;;4970365;28;20086;-92
2021/01/11 10:05:42;;;;;;;2.67;1.73;;;5.00;99.90;;;;;;4971811;28;20051;-93
2021/01/11 10:08:10;;;;;;;5.72;2.10;;;5.00;99.90;;;;;;4956507;28;20144;-93
2021/01/11 10:10:36;;;;;;;5.07;1.80;;;5.00;99.90;;;;;;4973228;28;20114;-94
2021/01/11 10:13:01;;;;;;;5.72;2.10;;;5.00;99.90;;;;;;4968878;28;20150;-92
2021/01/11 10:15:30;;;;;;;8.80;2.50;;;5.10;99.90;;;;;;4974978;28;20011;-92
2021/01/11 10:17:56;;;;;;;7.10;2.13;;;5.10;99.90;;;;;;4973747;28;20027;-94
2021/01/11 10:20:22;;;;;;;6.20;2.08;;;5.10;99.90;;;;;;4971233;28;20149;-93
2021/01/11 10:22:47;;;;;;;5.30;1.75;;;5.10;99.90;;;;;;4968656;28;20047;-92
2021/01/11 10:25:16;;;;;;;3.58;1.92;;;5.20;99.90;;;;;;4969804;28;20028;-94
2021/01/11 10:27:42;;;;;;;3.92;2.05;;;5.10;99.90;;;;;;4967932;28;20027;-92
2021/01/11 10:30:08;;;;;;;3.60;1.98;;;5.20;99.90;;;;;;4964693;28;20369;-93
2021/01/11 10:32:34;;;;;;;3.30;1.73;;;5.20;99.90;;;;;;4966358;28;20023;-93
2021/01/11 10:35:00;;;;;;;2.50;1.80;;;5.30;99.90;;;;;;4970896;28;20087;-95
2021/01/11 10:37:26;;;;;;;2.88;1.92;;;5.30;99.90;;;;;;4958829;28;20042;-93
2021/01/11 10:39:52;;;;;;;2.47;1.40;;;5.30;99.90;;;;;;4970795;28;20033;-93
2021/01/11 10:42:17;;;;;;;4.32;2.20;;;5.30;99.90;;;;;;4973118;28;20035;-94
2021/01/11 10:44:43;;;;;;;5.53;2.25;;;5.40;99.90;;;;;;4975822;28;20018;-93
2021/01/11 10:47:09;;;;;;;2.40;1.73;;;5.40;99.90;;;;;;4974841;28;20031;-94
2021/01/11 10:49:35;;;;;;;6.40;2.08;;;5.40;99.90;;;;;;4972823;28;20067;-93
2021/01/11 10:52:00;;;;;;;6.55;1.98;;;5.40;99.90;;;;;;4979349;28;20895;-91
2021/01/11 10:54:27;;;;;;;4.32;1.80;;;5.40;99.90;;;;;;4994173;28;20011;-93
2021/01/11 10:56:53;;;;;;;3.28;2.00;;;5.40;99.90;;;;;;4982390;28;20038;-93
2021/01/11 10:59:19;;;;;;;4.95;2.53;;;5.40;99.90;;;;;;4982449;28;20058;-92
2021/01/11 11:01:50;;;;;;;4.35;2.70;;;5.30;99.90;;;;;;4976648;28;20062;-93
2021/01/11 11:04:16;;;;;;;;;;;5.30;99.90;;;;;;4971189;28;20047;-91
2021/01/11 11:06:42;;;;;;;5.00;2.42;;;5.30;99.90;;;;;;4971079;28;20363;-93
2021/01/11 11:09:07;;;;;;;4.18;2.55;;;5.30;99.90;;;;;;4969011;28;20060;-93
2021/01/11 11:11:33;;;;;;;5.65;2.40;;;5.30;99.90;;;;;;4969376;28;20030;-92
2021/01/11 11:13:59;;;;;;;5.07;2.30;;;5.40;99.90;;;;;;4969769;28;20046;-92
2021/01/11 11:16:27;;;;;;;4.78;2.63;;;5.30;99.90;;;;;;4969204;28;20058;-93
2021/01/11 11:18:53;;;;;;;7.57;2.80;;;5.40;99.90;;;;;;4969786;28;20019;-94
2021/01/11 11:21:18;;;;;;;4.70;2.40;;;5.30;99.90;;;;;;4970508;28;20053;-93
2021/01/11 11:23:44;;;;;;;5.75;2.60;;;5.30;99.90;;;;;;4971644;28;20500;-94
2021/01/11 11:26:10;;;;;;;3.92;2.25;;;5.30;99.90;;;;;;4970418;28;20023;-93
2021/01/11 11:28:37;;;;;;;5.20;2.30;;;5.30;99.90;;;;;;4970262;28;20090;-95
2021/01/11 11:31:03;;;;;;;5.57;2.35;;;5.30;99.90;;;;;;4972997;28;20011;-91
2021/01/11 11:33:31;;;;;;;7.03;2.30;;;5.30;99.90;;;;;;4972895;28;20029;-93
2021/01/11 11:35:57;;;;;;;5.35;2.22;;;5.30;99.90;;;;;;4971526;28;20030;-93
2021/01/11 11:38:23;;;;;;;5.63;2.83;;;5.30;99.90;;;;;;4969973;28;20136;-93
2021/01/11 11:40:50;;;;;;;5.63;2.63;;;5.30;99.90;;;;;;4973708;28;20019;-94
2021/01/11 11:43:16;;;;;;;7.50;2.60;;;5.30;99.90;;;;;;4968953;28;20034;-94
2021/01/11 11:45:42;;;;;;;10.48;2.28;;;5.30;99.90;;;;;;4977304;28;20504;-95
2021/01/11 11:48:10;;;;;;;2.92;1.90;;;5.20;99.90;;;;;;4973246;28;20035;-93
2021/01/11 11:50:36;;;;;;;4.07;1.98;;;5.30;99.90;;;;;;4971022;28;20042;-93
2021/01/11 11:53:02;;;;;;;4.40;2.05;;;5.30;99.90;;;;;;4970458;28;20062;-93
2021/01/11 11:55:28;;;;;;;2.65;1.63;;;5.30;99.90;;;;;;4970713;28;20047;-93
2021/01/11 11:57:54;;;;;;;3.33;1.50;;;5.30;99.90;;;;;;4965796;28;20022;-95
2021/01/11 12:00:20;;;;;;;3.20;1.60;;;5.20;99.90;;;;;;4965635;28;20042;-93
2021/01/11 12:02:50;;;;;;;4.70;1.50;;;5.30;99.90;;;;;;4964966;28;20034;-94
2021/01/11 12:05:17;;;;;;;2.67;1.55;;;5.30;99.90;;;;;;4980572;28;20109;-94
2021/01/11 12:07:47;;;;;;;2.28;1.25;;;5.30;99.90;;;;;;4965669;28;20023;-94
2021/01/11 12:10:13;;;;;;;1.45;1.20;;;5.30;99.90;;;;;;4954479;28;20039;-93
2021/01/11 12:12:39;;;;;;;2.33;1.20;;;5.30;99.90;;;;;;4960450;28;20030;-93
2021/01/11 12:15:06;;;;;;;0.85;0.82;;;5.30;99.90;;;;;;4973768;28;20031;-93
2021/01/11 12:17:32;;;;;;;1.73;0.93;;;5.30;99.90;;;;;;4958460;28;20027;-93
2021/01/11 12:20:01;;;;;;;2.85;1.02;;;5.30;99.90;;;;;;4957940;28;20029;-94
2021/01/11 12:22:27;;;;;;;3.88;1.45;;;5.30;99.90;;;;;;4961356;28;20054;-93
2021/01/11 12:24:54;;;;;;;2.30;1.60;;;5.30;99.90;;;;;;4979041;28;20030;-94
2021/01/11 12:27:25;;;;;;;2.22;1.35;;;5.30;99.90;;;;;;4959874;28;20027;-95
2021/01/11 12:29:51;;;;;;;3.30;1.50;;;5.30;99.90;;;;;;4960171;28;20297;-95
2021/01/11 12:32:18;;;;;;;3.30;1.60;;;5.30;99.90;;;;;;4957797;28;20365;-92
2021/01/11 12:34:44;;;;;;;1.42;1.13;;;5.40;99.90;;;;;;4960515;28;20050;-93
2021/01/11 12:37:13;;;;;;;1.02;0.93;;;5.40;99.90;;;;;;4964179;28;20077;-93
2021/01/11 12:39:39;;;;;;;3.35;0.93;;;5.40;99.90;;;;;;4960684;28;20033;-94
2021/01/11 12:42:06;;;;;;;1.08;0.95;;;5.40;99.90;;;;;;4964667;28;20046;-93
2021/01/11 12:44:32;;;;;;;1.45;0.80;;;5.40;99.90;;;;;;4981560;28;20069;-92
2021/01/11 12:46:57;;;;;;;5.07;1.25;;;5.40;99.90;;;;;;4959950;28;20377;-93
2021/01/11 12:49:26;;;;;;;0.95;0.88;;;5.40;99.90;;;;;;4962616;28;20039;-92
2021/01/11 12:51:52;;;;;;;1.15;0.98;;;5.40;99.90;;;;;;4956163;28;20492;-92
2021/01/11 12:54:19;;;;;;;1.20;0.95;;;5.50;99.90;;;;;;4957060;28;20109;-94
2021/01/11 12:56:45;;;;;;;1.55;1.00;;;5.50;99.90;;;;;;4954358;28;20031;-93
2021/01/11 12:59:12;;;;;;;2.13;1.08;;;5.50;99.90;;;;;;4957495;28;20070;-93
2021/01/11 13:01:39;;;;;;;2.17;1.05;;;5.50;99.90;;;;;;4961894;28;20058;-95
2021/01/11 13:04:05;;;;;;;1.23;0.85;;;5.50;99.90;;;;;;4964948;28;20138;-94
2021/01/11 13:06:36;;;;;;;2.67;1.38;;;5.50;99.90;;;;;;4959212;28;20102;-94
2021/01/11 13:09:07;;;;;;;1.95;1.25;;;5.50;99.90;;;;;;4966691;28;20023;-94